KSLG/SLG METAR and TAF weather

Enter ICAO airport designator
Station Type Date Time Source
KSLG METAR 2021/05/13 00:56 UTC NOAA

KSLG 130056Z AUTO 02006KT 10SM BKN065 OVC075 16/08 A3029 RMK AO2 SLP255 T01560083 TSNO


Station Type Date Time Source
KSLG Decoded METAR 2021/05/13 00:56 UTC NOAA

Siloam Springs, Smith Field Airport, AR, United States (KSLG) 36-12N 094-29W
May 12, 2021 - 08:56 PM EDT / 2021.05.13 0056 UTC
Wind: from the NNE (020 degrees) at 7 MPH (6 KT):0
Visibility: 10 mile(s):0
Sky conditions: overcast
Temperature: 60.1 F (15.6 C)
Dew Point: 46.9 F (8.3 C)
Relative Humidity: 61%
Pressure (altimeter): 30.29 in. Hg (1025 hPa)
ob: KSLG 130056Z AUTO 02006KT 10SM BKN065 OVC075 16/08 A3029 RMK AO2 SLP255 T01560083 TSNO
cycle: 1

Station Type Date Time Source
KSLG TAF UTC NOAA

Error!

Example: see airport list